Delta Virtual Airport Information Service

Atlanta Hartsfield-Jackson International Airport

ICAO: KATL Country: United States
Latitude: 33.6367 Longitude: -84.428
Latest Arrival : FDX6332581 (KMEM-KATL) Latest Departure : DAC613 (KATL-KJFK)


WX CaptureLIVE
Data provided by noaa.gov | Fetched at 21:55:31

METAR : KATL 240152Z 15003KT 10SM FEW250 23/17 A3006 RMK AO2 SLP172 T02280172

TAF : KATL 240134Z 2402/2506 15004KT P6SM SCT250 FM240900 14003KT P6SM FEW025 BKN060 FM241200 16004KT P6SM VCSH SCT008 BKN020 FM241500 19005KT 6SM -SHRA BKN015 OVC050 PROB30 2415/2421 3SM -TSRA BKN010CB FM242100 17005KT P6SM VCSH SCT015 BKN035 FM250300 11003KT 6SM BR OVC009


Runway Data for KATL
Data provided by openaviationdata.com

Runway ID Mag Var Hdg Length Elevation Surface ILS Freq ILS Id ILS Slope
08L -3 93° 8990 ft 1026 ft Concrete 109.3 IHFW 3
08R -3 93° 9989 ft 1026 ft Concrete 109.9 IATL 3
09L -3 93° 11876 ft 1026 ft Concrete 110.5 IHZK 3
09R -3 93° 8990 ft 1026 ft Concrete 108.9 IFUN 3
26L -3 273° 9989 ft 1026 ft Concrete 108.7 IBRU 3
26R -3 273° 8990 ft 1026 ft Concrete 110.1 IGXZ 3
27L -3 273° 8990 ft 1026 ft Concrete 108.5 IFSQ 3
27R -3 273° 11876 ft 1026 ft Concrete 111.3 IAFA 3

Atlanta Hartsfield-Jackson International Airport, United States
Use only for reference purposes



Not for navigational purposes.